Friday, January 19, 2018, 10:36 AM EST
Back to Local

KSFZ, Pawtucket, North Central State Airport

Location: Smithfield, RI, United States Lat: 41.917
Local Time: 10:36 AM EST (15:36 GMT) Lon: -71.5
Time Zone: US/Eastern Elev: 439 ft

Show me the last for .
Show Coded

Time T Td Feel RH Dir Speed Gust Alt SLP Vis Weather Sky Remarks
2018-01-19 09:56 - - - 0 270° 10 16 29.99 - 10 OVC032 None
2018-01-19 08:56 - - - 0 270° 8 - 29.99 - 10 SCT034 None
2018-01-19 07:56 - - - 0 270° 7 - 29.97 - 10 CLR None
2018-01-19 06:56 - - - 0 270° 6 - 29.97 - 10 CLR None
2018-01-19 05:56 - - - 0 270° 6 - 29.96 - 10 CLR None
2018-01-19 04:56 - - - 0 280° 9 - 29.95 - 10 CLR None
2018-01-19 03:56 - - - 0 270° 6 - 29.94 - 10 CLR None
2018-01-19 02:56 - - - 0 280° 6 - 29.94 - 10 CLR None
2018-01-19 01:56 - - - 0 290° 9 - 29.94 - 10 CLR None
2018-01-19 00:56 - - - 0 290° 9 - 29.93 - 10 CLR None
2018-01-18 23:56 - - - 0 290° 9 - 29.94 - 10 CLR None
2018-01-18 22:56 - - - 0 280° 8 - 29.95 - 10 CLR None
2018-01-18 21:56 - - - 0 310° 12 - 29.95 - 10 CLR None
2018-01-18 20:56 - - - 0 290° 8 - 29.94 - 10 CLR None
2018-01-18 19:56 - - - 0 310° 6 - 29.93 - 10 CLR None
2018-01-18 18:56 - - - 0 320° 6 - 29.91 - 10 CLR None
2018-01-18 17:56 - - - 0 320° 6 - 29.89 - 10 BKN032 None
2018-01-18 16:56 - - - 0 310° 7 - 29.87 - 10 CLR None
2018-01-18 15:56 - - - 0 320° 8 - 29.85 - 10 CLR None
2018-01-18 14:56 - - - 0 330° 12 - 29.84 - 10 CLR None
2018-01-18 13:56 - - - 0 350° 14 - 29.84 - 10 CLR None
2018-01-18 12:56 - - - 0 340° 13 17 29.86 - 10 CLR None
2018-01-18 11:56 - - - 0 300° 10 - 29.89 - 10 CLR None
2018-01-18 10:56 - - - 0 310° 8 - - - 10 CLR None

Support USWX by starting your Amazon purchase here.